createdAt,value
2023-06-21T13:35:10.108Z,3.92
2023-06-21T13:37:36.645Z,3.92
2023-06-21T13:40:03.270Z,4.10
2023-06-21T13:42:29.786Z,3.97
2023-06-21T13:44:56.475Z,4.80
2023-06-21T13:47:23.082Z,4.32
2023-06-21T13:49:50.015Z,3.90
2023-06-21T13:52:20.513Z,3.65
2023-06-21T13:54:47.540Z,3.50
2023-06-21T13:57:15.940Z,2.90
2023-06-21T13:59:46.788Z,2.90
2023-06-21T14:02:14.132Z,2.80
2023-06-21T14:04:45.325Z,2.88
2023-06-21T14:07:12.971Z,3.00
2023-06-21T14:10:06.545Z,3.05
2023-06-21T14:12:34.093Z,3.20
2023-06-21T14:15:00.874Z,3.05
2023-06-21T14:17:27.617Z,2.65
2023-06-21T14:19:54.396Z,2.65
2023-06-21T14:22:20.962Z,2.25
2023-06-21T14:25:25.976Z,2.38
2023-06-21T14:27:52.754Z,2.33
2023-06-21T14:30:29.953Z,2.00
2023-06-21T14:32:56.882Z,2.28
2023-06-21T14:35:25.045Z,2.42
2023-06-21T14:37:54.948Z,2.10
2023-06-21T14:40:21.684Z,1.80
2023-06-21T14:42:48.400Z,1.90
2023-06-21T14:45:14.944Z,2.10
2023-06-21T14:47:41.559Z,2.33
2023-06-21T14:50:08.382Z,2.10
2023-06-21T14:52:34.885Z,2.40
2023-06-21T14:55:01.378Z,2.33
2023-06-21T14:57:27.941Z,2.25
2023-06-21T14:59:54.381Z,2.15
2023-06-21T15:02:20.989Z,1.90
2023-06-21T15:04:47.499Z,1.88
2023-06-21T15:07:19.017Z,1.65
2023-06-21T15:09:46.755Z,1.77
2023-06-21T15:12:13.600Z,1.88
2023-06-21T15:14:40.324Z,1.80
2023-06-21T15:17:07.162Z,1.60
2023-06-21T15:19:33.612Z,1.88
2023-06-21T15:22:00.195Z,1.70
2023-06-21T15:24:26.684Z,1.85
2023-06-21T15:26:53.570Z,1.70
2023-06-21T15:29:20.466Z,1.65
2023-06-21T15:31:46.936Z,1.60
2023-06-21T15:34:14.206Z,1.45
2023-06-21T15:36:42.466Z,2.00
2023-06-21T15:39:10.054Z,1.58
2023-06-21T15:41:37.816Z,1.60
2023-06-21T15:44:07.220Z,1.50
2023-06-21T15:46:34.687Z,1.63
2023-06-21T15:49:04.542Z,1.50
2023-06-21T15:51:31.295Z,1.58
2023-06-21T15:53:57.986Z,1.50
2023-06-21T15:56:25.991Z,1.33
2023-06-21T15:58:52.885Z,1.50
2023-06-21T16:01:20.433Z,1.70
2023-06-21T16:03:48.446Z,1.30
2023-06-21T16:06:16.077Z,1.52
2023-06-21T16:08:43.038Z,1.50
2023-06-21T16:11:13.005Z,1.50
2023-06-21T16:16:13.588Z,1.45
2023-06-21T16:18:40.209Z,1.33
2023-06-21T16:21:07.205Z,1.60
2023-06-21T16:23:34.449Z,1.52
2023-06-21T16:26:02.036Z,1.67
2023-06-21T16:28:28.992Z,1.60
2023-06-21T16:30:55.611Z,1.40
2023-06-21T16:33:22.191Z,1.35
2023-06-21T16:35:49.178Z,1.73
2023-06-21T16:38:16.055Z,1.65
2023-06-21T16:40:42.706Z,1.60
2023-06-21T16:43:09.385Z,1.40
2023-06-21T16:45:36.023Z,1.50
2023-06-21T16:48:03.429Z,2.00
2023-06-21T16:50:30.176Z,1.80
2023-06-21T16:52:56.875Z,1.52
2023-06-21T16:55:23.361Z,1.45
2023-06-21T16:57:49.983Z,1.80
2023-06-21T17:00:16.843Z,1.80
2023-06-21T17:02:43.874Z,1.85
2023-06-21T17:05:23.693Z,1.50
2023-06-21T17:10:50.064Z,1.60
2023-06-21T17:13:24.507Z,1.88
2023-06-21T17:21:17.218Z,1.75
2023-06-21T17:23:44.052Z,2.00
2023-06-21T17:26:10.936Z,1.60
2023-06-21T17:28:37.549Z,1.50
2023-06-21T17:31:04.130Z,1.80
2023-06-21T17:33:30.922Z,1.80
2023-06-21T17:35:57.494Z,1.70
2023-06-21T17:38:23.998Z,1.60
2023-06-21T17:40:50.472Z,1.70
2023-06-21T17:43:17.083Z,1.77
2023-06-21T17:45:43.756Z,1.73
2023-06-21T17:48:10.303Z,1.60
2023-06-21T17:50:36.791Z,1.70
2023-06-21T17:53:03.309Z,1.75
2023-06-21T17:55:30.053Z,1.58
2023-06-21T17:57:56.853Z,1.70
2023-06-21T18:00:23.568Z,1.65
2023-06-21T18:02:50.574Z,1.70
2023-06-21T18:05:17.106Z,1.67
2023-06-21T18:07:43.715Z,1.60
2023-06-21T18:10:10.667Z,1.67
2023-06-21T18:12:37.214Z,1.75
2023-06-21T18:15:04.530Z,1.80
2023-06-21T18:17:31.106Z,1.60
2023-06-21T18:19:57.587Z,1.80
2023-06-21T18:22:33.651Z,1.73
2023-06-21T18:25:08.877Z,1.75
2023-06-21T18:27:35.438Z,1.80
2023-06-21T18:30:08.791Z,1.80
2023-06-21T18:32:39.177Z,1.63
2023-06-21T18:35:09.697Z,1.70
2023-06-21T18:37:38.572Z,1.65
2023-06-21T18:40:05.977Z,1.80
2023-06-21T18:42:32.530Z,1.85
2023-06-21T18:44:59.259Z,1.60
2023-06-21T18:47:25.860Z,1.60
2023-06-21T18:49:52.364Z,1.65
2023-06-21T21:47:11.193Z,5.50
